Time;durP1;ratioP1;P1;durP2;ratioP2;P2;SDS_P1;SDS_P2;PMS_P1;PMS_P2;Temp;Humidity;BMP_temperature;BMP_pressure;BME280_temperature;BME280_humidity;BME280_pressure;Samples;Min_cycle;Max_cycle;Signal;HPM_P1;HPM_P2
2023/05/10 00:01:03;;;;;;;0.65;0.43;;;13.80;99.90;;;;;;4959202;28;20502;-74
2023/05/10 00:03:28;;;;;;;0.38;0.38;;;13.80;99.90;;;;;;4950431;28;20403;-74
2023/05/10 00:05:54;;;;;;;0.40;0.40;;;13.80;99.90;;;;;;4980176;28;20117;-74
2023/05/10 00:08:20;;;;;;;0.40;0.40;;;13.70;99.90;;;;;;4963730;28;20045;-73
2023/05/10 00:10:45;;;;;;;0.25;0.25;;;13.70;99.90;;;;;;4980891;28;20130;-74
2023/05/10 00:13:11;;;;;;;0.40;0.40;;;13.70;99.90;;;;;;4976629;28;20054;-74
2023/05/10 00:15:36;;;;;;;0.50;0.45;;;13.70;99.90;;;;;;4971577;28;20090;-74
2023/05/10 00:18:02;;;;;;;0.50;0.50;;;13.70;99.90;;;;;;4975375;28;20050;-74
2023/05/10 00:20:28;;;;;;;0.40;0.40;;;13.60;99.90;;;;;;4976172;28;20134;-74
2023/05/10 00:22:53;;;;;;;0.28;0.28;;;13.60;99.90;;;;;;4963752;28;20411;-74
2023/05/10 00:25:21;;;;;;;0.35;0.35;;;13.60;99.90;;;;;;4984465;28;20130;-74
2023/05/10 00:27:47;;;;;;;0.50;0.50;;;13.50;99.90;;;;;;4973145;28;20464;-74
2023/05/10 00:30:12;;;;;;;0.45;0.45;;;13.50;99.90;;;;;;4959012;28;20519;-73
2023/05/10 00:32:38;;;;;;;0.75;0.75;;;13.50;99.90;;;;;;4979192;28;20511;-74
2023/05/10 00:35:04;;;;;;;1.38;1.25;;;13.50;99.90;;;;;;4959962;28;20058;-73
2023/05/10 00:37:30;;;;;;;1.27;0.95;;;13.40;99.90;;;;;;4964635;28;20488;-74
2023/05/10 00:39:55;;;;;;;0.77;0.77;;;13.40;99.90;;;;;;4974862;28;20045;-74
2023/05/10 00:42:22;;;;;;;0.40;0.40;;;13.40;99.90;;;;;;4974962;28;20046;-74
2023/05/10 00:44:47;;;;;;;0.43;0.43;;;13.30;99.90;;;;;;4962203;28;20111;-74
2023/05/10 00:47:13;;;;;;;0.90;0.90;;;13.30;99.90;;;;;;4971433;28;20059;-74
2023/05/10 00:49:40;;;;;;;0.35;0.35;;;13.30;99.90;;;;;;4975360;28;20043;-74
2023/05/10 00:52:06;;;;;;;1.13;0.88;;;13.30;99.90;;;;;;4978164;28;20081;-74
2023/05/10 00:54:32;;;;;;;0.50;0.50;;;13.20;99.90;;;;;;4958713;28;20238;-74
2023/05/10 00:56:58;;;;;;;1.13;1.02;;;13.30;99.90;;;;;;4976404;28;20470;-73
2023/05/10 00:59:24;;;;;;;1.00;0.98;;;13.20;99.90;;;;;;4974823;28;20411;-73
2023/05/10 01:01:51;;;;;;;0.52;0.40;;;13.20;99.90;;;;;;4959944;28;20411;-73
2023/05/10 01:04:17;;;;;;;0.70;0.70;;;13.20;99.90;;;;;;4963889;28;20074;-74
2023/05/10 01:06:43;;;;;;;1.38;1.10;;;13.10;99.90;;;;;;4975611;28;20047;-73
2023/05/10 01:09:09;;;;;;;0.95;0.95;;;13.10;99.90;;;;;;4981843;28;20042;-73
2023/05/10 01:11:36;;;;;;;0.35;0.35;;;13.10;99.90;;;;;;4971190;28;20363;-73
2023/05/10 01:14:02;;;;;;;0.63;0.63;;;13.10;99.90;;;;;;4973736;28;20046;-73
2023/05/10 01:16:32;;;;;;;1.23;0.95;;;13.10;99.90;;;;;;4978468;28;20129;-73
2023/05/10 01:18:58;;;;;;;0.30;0.30;;;13.10;99.90;;;;;;4970883;28;20054;-73
2023/05/10 01:21:36;;;;;;;1.10;0.85;;;13.10;99.90;;;;;;4969856;28;20046;-73
2023/05/10 01:24:15;;;;;;;0.75;0.68;;;13.10;99.90;;;;;;4981463;28;20086;-73
2023/05/10 01:27:13;;;;;;;0.50;0.50;;;13.10;99.90;;;;;;4979589;28;20049;-73
2023/05/10 01:30:09;;;;;;;0.40;0.40;;;13.10;99.90;;;;;;4968820;28;20043;-73
2023/05/10 01:32:56;;;;;;;0.45;0.45;;;13.10;99.90;;;;;;4974818;28;20140;-73
2023/05/10 01:35:26;;;;;;;0.63;0.63;;;13.00;99.90;;;;;;4973295;28;20129;-73
2023/05/10 01:38:17;;;;;;;0.50;0.50;;;13.00;99.90;;;;;;4991794;28;20054;-73
2023/05/10 01:41:16;;;;;;;0.73;0.73;;;13.00;99.90;;;;;;4936238;28;20554;-73
2023/05/10 01:43:54;;;;;;;0.70;0.70;;;13.00;99.90;;;;;;4985621;28;20628;-73
2023/05/10 01:46:28;;;;;;;0.70;0.70;;;13.00;99.90;;;;;;4973499;28;20586;-73
2023/05/10 01:48:57;;;;;;;0.93;0.93;;;13.00;99.90;;;;;;4991490;28;20570;-73
2023/05/10 01:51:31;;;;;;;0.70;0.70;;;13.00;99.90;;;;;;4972520;28;20050;-73
2023/05/10 01:54:02;;;;;;;1.00;1.00;;;12.90;99.90;;;;;;4972965;28;20058;-73
2023/05/10 01:56:30;;;;;;;1.17;1.05;;;13.00;99.90;;;;;;4971856;28;20050;-73
2023/05/10 01:58:56;;;;;;;;;;;12.90;99.90;;;;;;4977317;28;20047;-73
2023/05/10 02:01:24;;;;;;;0.93;0.93;;;12.90;99.90;;;;;;4984759;28;19968;-74
2023/05/10 02:03:51;;;;;;;0.17;0.17;;;12.80;99.90;;;;;;4962570;28;20090;-73
2023/05/10 02:06:19;;;;;;;0.28;0.28;;;12.80;99.90;;;;;;4985941;28;20046;-73
2023/05/10 02:08:46;;;;;;;;;;;12.80;99.90;;;;;;4973165;28;20046;-73
2023/05/10 02:11:13;;;;;;;0.85;0.85;;;12.80;99.90;;;;;;4976807;28;19921;-74
2023/05/10 02:13:41;;;;;;;0.87;0.87;;;12.90;99.90;;;;;;4973387;28;20052;-73
2023/05/10 02:16:08;;;;;;;0.50;0.50;;;12.80;99.90;;;;;;4987270;28;20301;-73
2023/05/10 02:18:35;;;;;;;0.30;0.30;;;12.80;99.90;;;;;;4988792;28;20046;-74
2023/05/10 02:21:02;;;;;;;0.20;0.20;;;12.80;99.90;;;;;;4969538;28;20054;-74
2023/05/10 02:23:29;;;;;;;0.55;0.55;;;12.70;99.90;;;;;;4982357;28;20050;-74
2023/05/10 02:25:57;;;;;;;0.50;0.50;;;12.70;99.90;;;;;;4986835;28;20039;-74
2023/05/10 02:28:25;;;;;;;0.63;0.63;;;12.70;99.90;;;;;;4972749;28;20058;-74
2023/05/10 02:30:54;;;;;;;0.98;0.98;;;12.80;99.90;;;;;;4972476;28;20290;-74
2023/05/10 02:33:19;;;;;;;;;;;12.70;99.90;;;;;;4968358;28;20050;-73
2023/05/10 02:35:46;;;;;;;0.30;0.30;;;12.70;99.90;;;;;;4972869;28;19922;-74
2023/05/10 02:38:14;;;;;;;0.60;0.60;;;12.80;99.90;;;;;;4972039;28;20046;-74
2023/05/10 02:40:42;;;;;;;0.20;0.20;;;12.70;99.90;;;;;;4990449;28;20038;-74
2023/05/10 02:43:11;;;;;;;0.90;0.85;;;12.80;99.90;;;;;;4968558;28;20553;-74
2023/05/10 02:45:39;;;;;;;0.50;0.50;;;12.70;99.90;;;;;;4972402;28;20400;-74
2023/05/10 02:48:05;;;;;;;1.52;0.82;;;12.80;99.90;;;;;;4971562;28;20089;-73
2023/05/10 02:50:33;;;;;;;0.40;0.40;;;12.70;99.90;;;;;;4965021;28;20517;-73
2023/05/10 02:53:09;;;;;;;0.70;0.70;;;12.70;99.90;;;;;;4971075;28;20089;-74
2023/05/10 02:55:41;;;;;;;0.20;0.20;;;12.70;99.90;;;;;;4990032;28;20050;-73
2023/05/10 02:58:06;;;;;;;0.90;0.75;;;12.70;99.90;;;;;;4971291;28;20085;-74
2023/05/10 03:00:32;;;;;;;0.30;0.30;;;12.70;99.90;;;;;;4972654;28;20495;-74
2023/05/10 03:02:58;;;;;;;0.52;0.52;;;12.70;99.90;;;;;;4972407;28;20112;-74
2023/05/10 03:05:24;;;;;;;0.22;0.22;;;12.70;99.90;;;;;;4973394;28;20130;-74
2023/05/10 03:07:51;;;;;;;0.77;0.77;;;12.60;99.90;;;;;;4963912;28;20553;-73
2023/05/10 03:10:17;;;;;;;0.43;0.43;;;12.60;99.90;;;;;;4988928;28;20093;-73
2023/05/10 03:13:32;;;;;;;0.30;0.30;;;12.60;99.90;;;;;;4970355;28;20053;-74
2023/05/10 03:16:25;;;;;;;0.47;0.47;;;12.60;99.90;;;;;;4968765;28;20129;-74
2023/05/10 03:19:14;;;;;;;0.32;0.32;;;12.70;99.90;;;;;;4971764;28;20451;-74
2023/05/10 03:21:44;;;;;;;0.88;0.73;;;12.70;99.90;;;;;;4993256;28;20054;-73
2023/05/10 03:24:12;;;;;;;2.42;1.40;;;12.70;99.90;;;;;;4971821;28;20058;-73
2023/05/10 03:26:39;;;;;;;0.65;0.65;;;12.70;99.90;;;;;;4971957;28;20061;-73
2023/05/10 03:29:07;;;;;;;1.45;0.50;;;12.60;99.90;;;;;;4971911;28;20050;-73
2023/05/10 03:31:33;;;;;;;0.75;0.75;;;12.70;99.90;;;;;;4972889;28;20149;-73
2023/05/10 03:33:59;;;;;;;0.80;0.75;;;12.70;99.90;;;;;;4957234;28;20559;-74
2023/05/10 03:36:24;;;;;;;1.30;0.98;;;12.70;99.90;;;;;;4988803;28;20141;-74
2023/05/10 03:38:50;;;;;;;0.82;0.82;;;12.70;99.90;;;;;;4962802;28;20132;-74
2023/05/10 03:41:16;;;;;;;0.80;0.80;;;12.60;99.90;;;;;;4985730;28;20813;-74
2023/05/10 03:43:41;;;;;;;1.10;1.10;;;12.70;99.90;;;;;;4971195;28;20447;-74
2023/05/10 03:46:07;;;;;;;0.30;0.30;;;12.60;99.90;;;;;;4986218;28;20419;-73
2023/05/10 03:48:33;;;;;;;0.73;0.70;;;12.70;99.90;;;;;;4969872;28;20053;-74
2023/05/10 03:50:59;;;;;;;0.77;0.77;;;12.60;99.90;;;;;;4966524;28;20038;-74
2023/05/10 03:53:24;;;;;;;0.40;0.40;;;12.70;99.90;;;;;;4966958;28;20046;-74
2023/05/10 03:55:50;;;;;;;0.28;0.28;;;12.60;99.90;;;;;;4969484;28;20129;-73
2023/05/10 03:58:16;;;;;;;1.58;1.20;;;12.60;99.90;;;;;;4971163;28;20049;-74
2023/05/10 04:00:43;;;;;;;0.55;0.40;;;12.60;99.90;;;;;;4967898;28;20050;-73
2023/05/10 04:03:09;;;;;;;0.30;0.30;;;12.60;99.90;;;;;;4982584;28;20058;-74
2023/05/10 04:05:35;;;;;;;1.15;1.15;;;12.60;99.90;;;;;;4972304;28;20065;-74
2023/05/10 04:08:02;;;;;;;0.40;0.40;;;12.60;99.90;;;;;;4969781;28;20046;-74
2023/05/10 04:10:29;;;;;;;0.60;0.60;;;12.60;99.90;;;;;;4961569;28;20141;-74
2023/05/10 04:12:55;;;;;;;0.98;0.93;;;12.60;99.90;;;;;;4975447;28;20069;-74
2023/05/10 04:15:20;;;;;;;0.28;0.28;;;12.60;99.90;;;;;;4971565;28;20541;-74
2023/05/10 04:17:46;;;;;;;1.38;1.33;;;12.60;99.90;;;;;;4972806;28;20510;-74
2023/05/10 04:20:12;;;;;;;1.08;0.88;;;12.60;99.90;;;;;;4968058;28;20173;-74
2023/05/10 04:22:38;;;;;;;0.77;0.77;;;12.60;99.90;;;;;;4987112;28;20455;-74
2023/05/10 04:25:04;;;;;;;1.00;0.73;;;12.60;99.90;;;;;;4988542;28;20050;-74
2023/05/10 04:27:30;;;;;;;0.80;0.80;;;12.60;99.90;;;;;;4969479;28;20106;-74
2023/05/10 04:29:56;;;;;;;0.77;0.77;;;12.50;99.90;;;;;;4970594;28;20042;-74
2023/05/10 04:32:22;;;;;;;1.33;1.33;;;12.50;99.90;;;;;;4986382;28;20388;-74
2023/05/10 04:34:48;;;;;;;0.80;0.80;;;12.50;99.90;;;;;;4969135;28;20077;-74
2023/05/10 04:37:14;;;;;;;1.45;1.27;;;12.50;99.90;;;;;;4968768;28;20046;-74
2023/05/10 04:39:40;;;;;;;0.63;0.63;;;12.50;99.90;;;;;;4969768;28;20095;-74
2023/05/10 04:42:05;;;;;;;0.60;0.60;;;12.40;99.90;;;;;;4970555;28;20081;-75
2023/05/10 04:44:32;;;;;;;1.75;1.05;;;12.50;99.90;;;;;;4969475;28;20050;-74
2023/05/10 04:46:58;;;;;;;1.10;1.00;;;12.50;99.90;;;;;;4966758;28;20409;-74
2023/05/10 04:49:24;;;;;;;0.60;0.50;;;12.50;99.90;;;;;;4948161;28;20054;-74
2023/05/10 04:51:50;;;;;;;1.75;0.80;;;12.50;99.90;;;;;;4966052;28;20054;-73
2023/05/10 04:54:15;;;;;;;1.05;1.05;;;12.50;99.90;;;;;;4951222;28;20059;-73
2023/05/10 04:56:41;;;;;;;0.47;0.47;;;12.50;99.90;;;;;;4968234;28;20047;-74
2023/05/10 04:59:07;;;;;;;1.30;0.55;;;12.40;99.90;;;;;;4966570;28;20051;-73
2023/05/10 05:01:32;;;;;;;0.80;0.80;;;12.50;99.90;;;;;;4950832;28;20125;-73
2023/05/10 05:03:59;;;;;;;0.45;0.45;;;12.50;99.90;;;;;;4970935;28;20051;-74
2023/05/10 05:06:24;;;;;;;0.80;0.80;;;12.50;99.90;;;;;;4969961;28;20110;-74
2023/05/10 05:08:51;;;;;;;0.20;0.20;;;12.50;99.90;;;;;;4960824;28;20043;-74
2023/05/10 05:11:20;;;;;;;0.88;0.88;;;12.50;99.90;;;;;;4955117;28;20071;-74
2023/05/10 05:13:46;;;;;;;0.75;0.55;;;12.50;99.90;;;;;;4971955;28;20389;-74
2023/05/10 05:16:15;;;;;;;0.50;0.50;;;12.50;99.90;;;;;;4954713;28;20063;-74
2023/05/10 05:18:41;;;;;;;0.65;0.65;;;12.50;99.90;;;;;;4954973;28;20174;-74
2023/05/10 05:21:19;;;;;;;0.30;0.30;;;12.50;99.90;;;;;;4954088;28;20133;-74
2023/05/10 05:23:45;;;;;;;1.50;1.38;;;12.50;99.90;;;;;;4948376;28;20078;-74
2023/05/10 05:26:11;;;;;;;1.42;1.33;;;12.50;99.90;;;;;;4953930;28;20101;-74
2023/05/10 05:28:37;;;;;;;0.52;0.52;;;12.50;99.90;;;;;;4971767;28;20125;-74
2023/05/10 05:31:09;;;;;;;0.77;0.77;;;12.60;99.90;;;;;;4970989;28;20101;-74
2023/05/10 05:33:34;;;;;;;0.70;0.70;;;12.60;99.90;;;;;;4966982;28;20053;-74
2023/05/10 05:36:02;;;;;;;1.52;1.42;;;12.60;99.90;;;;;;4952679;28;20050;-74
2023/05/10 05:38:27;;;;;;;0.87;0.87;;;12.60;99.90;;;;;;4967543;28;20424;-74
2023/05/10 05:40:53;;;;;;;1.15;0.60;;;12.60;99.90;;;;;;4970760;28;20270;-74
2023/05/10 05:43:19;;;;;;;1.20;0.98;;;12.60;99.90;;;;;;4948529;28;20047;-74
2023/05/10 05:45:44;;;;;;;0.60;0.60;;;12.60;99.90;;;;;;4952718;28;20047;-74
2023/05/10 05:48:10;;;;;;;0.75;0.75;;;12.60;99.90;;;;;;4982105;28;20129;-74
2023/05/10 05:50:36;;;;;;;1.17;1.08;;;12.60;99.90;;;;;;4982622;28;20064;-74
2023/05/10 05:53:02;;;;;;;0.77;0.73;;;12.60;99.90;;;;;;4990427;28;20038;-74
2023/05/10 05:55:27;;;;;;;0.52;0.50;;;12.60;99.90;;;;;;4968098;28;20053;-74
2023/05/10 05:57:53;;;;;;;1.15;1.10;;;12.70;99.90;;;;;;4958366;28;20126;-73
2023/05/10 06:00:19;;;;;;;1.00;1.00;;;12.60;99.90;;;;;;4977541;28;20050;-73
2023/05/10 06:02:45;;;;;;;1.65;1.30;;;12.60;99.90;;;;;;4990155;28;20130;-73
2023/05/10 06:05:10;;;;;;;1.42;1.33;;;12.60;99.90;;;;;;4971415;28;20380;-73
2023/05/10 06:07:36;;;;;;;0.30;0.30;;;12.60;99.90;;;;;;4973671;28;20484;-73
2023/05/10 06:10:02;;;;;;;0.40;0.40;;;12.60;99.90;;;;;;4974588;28;20100;-73
2023/05/10 06:12:28;;;;;;;0.60;0.60;;;12.60;99.90;;;;;;4988148;28;20133;-74
2023/05/10 06:14:54;;;;;;;0.77;0.77;;;12.60;99.90;;;;;;4966634;28;20046;-73
2023/05/10 06:17:19;;;;;;;0.43;0.43;;;12.60;99.90;;;;;;4971330;28;20038;-74
2023/05/10 06:19:45;;;;;;;0.63;0.63;;;12.60;99.90;;;;;;4972328;28;20074;-75
2023/05/10 06:22:10;;;;;;;0.52;0.52;;;12.50;99.90;;;;;;4970382;28;20042;-74
2023/05/10 06:24:36;;;;;;;0.40;0.40;;;12.60;99.90;;;;;;4957693;28;20042;-74
2023/05/10 06:27:02;;;;;;;1.27;0.93;;;12.60;99.90;;;;;;4971338;28;20133;-74
2023/05/10 06:29:27;;;;;;;0.57;0.57;;;12.60;99.90;;;;;;4988726;28;20059;-73
2023/05/10 06:31:54;;;;;;;1.20;1.15;;;12.60;99.90;;;;;;4971333;28;20651;-74
2023/05/10 06:34:19;;;;;;;0.30;0.30;;;12.60;99.90;;;;;;4991177;28;20133;-74
2023/05/10 06:36:45;;;;;;;0.20;0.20;;;12.60;99.90;;;;;;4990865;28;20177;-74
2023/05/10 06:39:11;;;;;;;0.45;0.45;;;12.60;99.90;;;;;;4964080;28;20559;-74
2023/05/10 06:41:37;;;;;;;0.30;0.30;;;12.60;99.90;;;;;;4995468;28;20054;-74
2023/05/10 06:44:03;;;;;;;0.52;0.52;;;12.70;99.90;;;;;;4972358;28;20069;-73
2023/05/10 06:46:29;;;;;;;0.20;0.20;;;12.60;99.90;;;;;;4989301;28;20065;-73
2023/05/10 06:48:55;;;;;;;0.20;0.20;;;12.60;99.90;;;;;;4968313;28;20054;-73
2023/05/10 06:51:21;;;;;;;0.47;0.47;;;12.70;99.90;;;;;;4987371;28;20089;-74
2023/05/10 06:53:47;;;;;;;0.63;0.63;;;12.70;99.90;;;;;;4980545;28;20418;-73
2023/05/10 06:56:13;;;;;;;0.50;0.50;;;12.70;99.90;;;;;;4974730;28;20064;-74
2023/05/10 06:58:38;;;;;;;0.82;0.82;;;12.70;99.90;;;;;;4968221;28;20042;-74
2023/05/10 07:01:05;;;;;;;0.28;0.28;;;12.70;99.90;;;;;;4985633;28;20132;-73
2023/05/10 07:03:31;;;;;;;0.43;0.43;;;12.70;99.90;;;;;;4972189;28;20050;-73
2023/05/10 07:06:02;;;;;;;0.55;0.43;;;12.70;99.90;;;;;;4972217;28;20642;-73
2023/05/10 07:08:29;;;;;;;1.20;0.68;;;12.80;99.90;;;;;;4969882;28;20054;-73
2023/05/10 07:11:03;;;;;;;0.70;0.70;;;12.80;99.90;;;;;;4971924;28;20042;-73
2023/05/10 07:13:33;;;;;;;0.60;0.60;;;12.80;99.90;;;;;;4969975;28;20607;-73
2023/05/10 07:16:00;;;;;;;0.30;0.30;;;12.90;99.90;;;;;;4989052;28;20136;-73
2023/05/10 07:18:26;;;;;;;0.47;0.47;;;12.90;99.90;;;;;;4988138;28;20070;-74
2023/05/10 07:20:52;;;;;;;0.22;0.22;;;13.00;99.90;;;;;;4993448;28;20061;-74
2023/05/10 07:23:18;;;;;;;0.50;0.50;;;13.00;99.90;;;;;;4972843;28;20054;-74
2023/05/10 07:25:48;;;;;;;0.30;0.30;;;13.10;99.90;;;;;;4971110;28;20047;-74
2023/05/10 07:28:15;;;;;;;0.20;0.20;;;13.10;99.90;;;;;;4970749;28;20141;-74
2023/05/10 07:30:41;;;;;;;0.40;0.40;;;13.20;99.90;;;;;;4969098;28;20046;-74
2023/05/10 07:33:08;;;;;;;0.28;0.28;;;13.20;99.90;;;;;;4970629;28;20057;-74
2023/05/10 07:35:34;;;;;;;0.30;0.30;;;13.30;99.90;;;;;;4970983;28;20057;-74
2023/05/10 07:38:00;;;;;;;0.38;0.38;;;13.30;99.90;;;;;;4987195;28;20435;-74
2023/05/10 07:40:25;;;;;;;0.22;0.22;;;13.40;99.90;;;;;;4988258;28;20038;-74
2023/05/10 07:42:51;;;;;;;0.20;0.20;;;13.40;99.90;;;;;;4987084;28;20046;-73
2023/05/10 07:45:18;;;;;;;0.25;0.25;;;13.40;99.90;;;;;;4988862;28;20043;-73
2023/05/10 07:47:43;;;;;;;0.20;0.20;;;13.40;99.90;;;;;;4989032;28;20542;-73
2023/05/10 07:50:09;;;;;;;0.20;0.20;;;13.50;99.90;;;;;;4967394;28;20098;-73
2023/05/10 07:52:35;;;;;;;0.30;0.30;;;13.50;99.90;;;;;;4965325;28;20046;-73
2023/05/10 07:55:00;;;;;;;0.30;0.30;;;13.60;99.90;;;;;;4988391;28;20511;-73
2023/05/10 07:57:26;;;;;;;0.30;0.30;;;13.50;99.90;;;;;;4987879;28;20496;-73
2023/05/10 07:59:52;;;;;;;0.30;0.30;;;13.50;99.90;;;;;;4970844;28;20041;-73
2023/05/10 08:02:18;;;;;;;0.20;0.20;;;13.60;99.90;;;;;;4970880;28;20319;-73
2023/05/10 08:04:44;;;;;;;0.40;0.40;;;13.70;99.90;;;;;;4966286;28;20659;-73
2023/05/10 08:07:11;;;;;;;0.22;0.22;;;13.70;99.90;;;;;;4962981;28;20050;-73
2023/05/10 08:09:36;;;;;;;0.38;0.38;;;13.60;99.90;;;;;;4985241;28;20046;-73
2023/05/10 08:12:02;;;;;;;0.20;0.20;;;13.70;99.90;;;;;;4971415;28;20057;-73
2023/05/10 08:14:29;;;;;;;0.30;0.30;;;13.60;99.90;;;;;;4969316;28;20381;-74
2023/05/10 08:16:56;;;;;;;0.30;0.30;;;13.70;99.90;;;;;;4970516;28;20045;-73
2023/05/10 08:19:22;;;;;;;0.30;0.30;;;13.70;99.90;;;;;;4970151;28;20050;-74
2023/05/10 08:21:48;;;;;;;0.25;0.25;;;13.60;99.90;;;;;;4967483;28;20507;-74
2023/05/10 08:24:13;;;;;;;0.55;0.55;;;13.70;99.90;;;;;;4973432;28;20065;-73
2023/05/10 08:26:39;;;;;;;0.25;0.25;;;13.70;99.90;;;;;;4961009;28;20046;-74
2023/05/10 08:29:05;;;;;;;0.20;0.20;;;13.70;99.90;;;;;;4983045;28;20042;-74
2023/05/10 08:31:31;;;;;;;0.40;0.40;;;13.70;99.90;;;;;;4987329;28;20513;-73
2023/05/10 08:33:57;;;;;;;0.30;0.30;;;13.70;99.90;;;;;;4985689;28;20046;-74
2023/05/10 08:36:24;;;;;;;0.20;0.20;;;13.70;99.90;;;;;;4986381;28;20062;-73
2023/05/10 08:38:53;;;;;;;0.22;0.22;;;13.80;99.90;;;;;;4978061;28;20050;-74
2023/05/10 08:41:25;;;;;;;0.20;0.20;;;13.80;99.90;;;;;;4965381;28;20046;-74
2023/05/10 08:43:54;;;;;;;0.20;0.20;;;13.80;99.90;;;;;;4967086;28;20050;-74
2023/05/10 08:46:23;;;;;;;0.25;0.25;;;13.80;99.90;;;;;;4967440;28;20042;-73
2023/05/10 08:48:49;;;;;;;;;;;13.80;99.90;;;;;;4971914;28;20744;-73
2023/05/10 08:51:25;;;;;;;0.20;0.20;;;13.80;99.90;;;;;;4980599;28;19926;-74
2023/05/10 08:53:50;;;;;;;0.30;0.30;;;13.80;99.90;;;;;;4981652;28;20047;-73
2023/05/10 08:56:17;;;;;;;0.20;0.20;;;13.80;99.90;;;;;;4975739;28;20062;-73
2023/05/10 08:58:44;;;;;;;0.30;0.30;;;13.80;99.90;;;;;;4967783;28;20053;-73
2023/05/10 09:01:13;;;;;;;0.22;0.22;;;13.80;99.90;;;;;;4970365;28;20096;-73
2023/05/10 09:03:39;;;;;;;0.20;0.20;;;13.70;99.90;;;;;;4970351;28;20452;-73
2023/05/10 09:06:05;;;;;;;0.30;0.30;;;13.70;99.90;;;;;;4972779;28;20046;-73
2023/05/10 09:08:30;;;;;;;0.40;0.40;;;13.70;99.90;;;;;;4968714;28;20050;-73
2023/05/10 09:10:58;;;;;;;0.28;0.28;;;13.60;99.90;;;;;;4965619;28;20573;-73
2023/05/10 09:13:24;;;;;;;2.05;0.32;;;13.60;99.90;;;;;;4980743;28;20138;-73
2023/05/10 09:15:51;;;;;;;0.30;0.30;;;13.60;99.90;;;;;;4983432;28;20121;-73
2023/05/10 09:18:16;;;;;;;0.20;0.20;;;13.60;99.90;;;;;;4965274;28;20042;-73
2023/05/10 09:20:42;;;;;;;0.85;0.85;;;13.60;99.90;;;;;;4966275;28;20460;-73
2023/05/10 09:23:08;;;;;;;0.28;0.28;;;13.60;99.90;;;;;;4960708;28;20065;-73
2023/05/10 09:25:34;;;;;;;0.47;0.47;;;13.60;99.90;;;;;;4969236;28;20062;-73
2023/05/10 09:28:00;;;;;;;0.30;0.30;;;13.60;99.90;;;;;;4970128;28;20046;-73
2023/05/10 09:30:28;;;;;;;0.20;0.20;;;13.60;99.90;;;;;;4981535;28;20049;-73
2023/05/10 09:32:55;;;;;;;0.50;0.50;;;13.50;99.90;;;;;;4987145;28;20061;-73
2023/05/10 09:35:23;;;;;;;0.20;0.20;;;13.60;99.90;;;;;;4969801;28;20042;-73
2023/05/10 09:37:51;;;;;;;0.30;0.30;;;13.60;99.90;;;;;;4981481;28;20046;-73
2023/05/10 09:40:19;;;;;;;0.30;0.30;;;13.70;99.90;;;;;;4962093;28;20066;-73
2023/05/10 09:42:57;;;;;;;0.35;0.35;;;13.80;99.90;;;;;;4964731;28;20547;-73
2023/05/10 09:45:24;;;;;;;0.40;0.40;;;13.90;99.90;;;;;;4978294;28;20047;-73
2023/05/10 09:47:53;;;;;;;0.30;0.20;;;14.10;99.90;;;;;;4973212;28;20081;-73
2023/05/10 09:50:20;;;;;;;0.20;0.20;;;14.20;99.90;;;;;;4979605;28;20061;-73
2023/05/10 09:52:57;;;;;;;0.20;0.20;;;14.40;99.90;;;;;;4956661;28;20522;-73
2023/05/10 09:55:24;;;;;;;0.20;0.20;;;14.40;99.90;;;;;;4989662;28;20096;-73
2023/05/10 09:58:00;;;;;;;0.20;0.20;;;14.50;99.90;;;;;;4960881;28;20468;-74
2023/05/10 10:00:26;;;;;;;0.30;0.30;;;14.60;99.90;;;;;;4959382;28;20077;-73
2023/05/10 10:02:57;;;;;;;0.20;0.20;;;14.50;99.90;;;;;;4976694;28;20126;-73
2023/05/10 10:05:33;;;;;;;0.30;0.30;;;14.50;99.90;;;;;;4977709;28;20590;-74
2023/05/10 10:08:00;;;;;;;0.20;0.20;;;14.50;99.90;;;;;;4961153;28;20081;-74
2023/05/10 10:10:27;;;;;;;0.30;0.30;;;14.50;99.90;;;;;;4964255;28;20286;-74
2023/05/10 10:12:53;;;;;;;0.75;0.75;;;14.50;99.90;;;;;;4970765;28;20042;-74
2023/05/10 10:15:20;;;;;;;0.10;0.10;;;14.50;99.90;;;;;;4974884;28;20467;-74
2023/05/10 10:17:47;;;;;;;0.20;0.20;;;14.50;99.90;;;;;;4978182;28;20121;-74
2023/05/10 10:20:14;;;;;;;0.30;0.30;;;14.50;99.90;;;;;;4975372;28;20058;-74
2023/05/10 10:22:40;;;;;;;0.20;0.20;;;14.50;99.90;;;;;;4983589;28;20058;-74
2023/05/10 10:25:06;;;;;;;0.20;0.20;;;14.60;99.90;;;;;;4975149;28;20404;-74
2023/05/10 10:27:53;;;;;;;0.60;0.60;;;14.70;99.90;;;;;;4986877;28;20411;-74
2023/05/10 10:30:44;;;;;;;0.30;0.30;;;14.70;99.90;;;;;;4977729;28;20133;-74
2023/05/10 10:33:31;;;;;;;0.40;0.40;;;14.80;99.90;;;;;;4967657;28;20054;-74
2023/05/10 10:36:02;;;;;;;0.40;0.40;;;14.90;99.90;;;;;;4983338;28;20043;-74
2023/05/10 10:38:48;;;;;;;0.25;0.25;;;15.00;99.90;;;;;;4971534;28;20046;-74
2023/05/10 10:41:44;;;;;;;0.30;0.30;;;15.20;99.90;;;;;;4954785;28;20101;-74
2023/05/10 10:44:27;;;;;;;0.32;0.32;;;15.30;99.90;;;;;;4979634;28;20137;-74
2023/05/10 10:47:08;;;;;;;0.40;0.40;;;15.50;99.90;;;;;;4977072;28;20097;-74
2023/05/10 10:49:40;;;;;;;0.30;0.30;;;15.60;99.90;;;;;;4961341;28;20051;-74
2023/05/10 10:52:30;;;;;;;0.50;0.50;;;15.70;99.90;;;;;;4980277;28;20050;-74
2023/05/10 10:55:10;;;;;;;0.20;0.20;;;15.60;99.90;;;;;;4979991;28;20058;-74
2023/05/10 10:57:52;;;;;;;1.05;0.50;;;15.60;99.90;;;;;;4983121;28;20086;-74
2023/05/10 11:00:17;;;;;;;0.40;0.40;;;15.60;99.90;;;;;;4970842;28;20511;-74
2023/05/10 11:02:51;;;;;;;0.40;0.40;;;15.60;99.90;;;;;;4973620;28;20046;-74
2023/05/10 11:05:24;;;;;;;0.45;0.45;;;15.60;99.90;;;;;;4977483;28;20142;-74
2023/05/10 11:07:57;;;;;;;0.30;0.30;;;15.60;99.90;;;;;;4960711;28;20078;-74
2023/05/10 11:10:24;;;;;;;0.45;0.45;;;15.60;99.90;;;;;;4962279;28;20094;-74
2023/05/10 11:13:03;;;;;;;0.35;0.35;;;15.60;99.90;;;;;;4980305;28;20057;-74
2023/05/10 11:15:39;;;;;;;0.40;0.40;;;15.60;99.90;;;;;;4983524;28;20090;-74
2023/05/10 11:18:18;;;;;;;0.20;0.20;;;15.70;99.90;;;;;;4979231;28;20077;-74
2023/05/10 11:20:49;;;;;;;0.30;0.30;;;15.70;99.90;;;;;;4982409;28;20043;-74
2023/05/10 11:23:17;;;;;;;0.40;0.40;;;15.80;99.90;;;;;;4987126;28;20424;-73
2023/05/10 11:25:44;;;;;;;0.20;0.20;;;15.90;99.90;;;;;;4980692;28;20826;-74
2023/05/10 11:28:10;;;;;;;0.40;0.40;;;15.90;99.90;;;;;;4959173;28;20082;-74
2023/05/10 11:30:37;;;;;;;0.30;0.30;;;16.00;99.90;;;;;;4975874;28;20074;-74
2023/05/10 11:33:03;;;;;;;0.35;0.32;;;16.10;99.90;;;;;;4962946;28;20901;-74
2023/05/10 11:35:29;;;;;;;0.20;0.20;;;16.10;99.90;;;;;;4959176;28;20047;-74
2023/05/10 11:37:55;;;;;;;0.30;0.30;;;16.10;99.90;;;;;;4970714;28;20039;-74
2023/05/10 11:40:24;;;;;;;0.50;0.50;;;16.20;99.90;;;;;;4973332;28;20053;-74
2023/05/10 11:42:50;;;;;;;0.20;0.20;;;16.20;99.90;;;;;;4974208;28;20053;-74
2023/05/10 11:45:16;;;;;;;0.50;0.50;;;16.20;99.90;;;;;;4978552;28;20046;-74
2023/05/10 11:47:43;;;;;;;0.80;0.80;;;16.20;99.90;;;;;;4973783;28;20730;-73
2023/05/10 11:50:11;;;;;;;0.22;0.22;;;16.10;99.90;;;;;;4960293;28;20078;-74
2023/05/10 11:52:37;;;;;;;0.40;0.40;;;16.10;99.90;;;;;;4968205;28;20564;-74
2023/05/10 11:55:03;;;;;;;0.57;0.57;;;16.10;99.90;;;;;;4979744;28;20100;-73
2023/05/10 11:57:30;;;;;;;0.40;0.40;;;16.00;99.90;;;;;;4960711;28;20161;-73
2023/05/10 11:59:58;;;;;;;0.22;0.22;;;16.10;99.90;;;;;;4974264;28;20058;-74
2023/05/10 12:02:24;;;;;;;0.30;0.30;;;16.00;99.90;;;;;;4974538;28;20133;-73
2023/05/10 12:04:50;;;;;;;0.28;0.25;;;15.90;99.90;;;;;;4979479;28;20134;-73
2023/05/10 12:07:16;;;;;;;0.30;0.30;;;15.90;99.90;;;;;;4958222;28;20117;-73
2023/05/10 12:10:09;;;;;;;0.30;0.30;;;15.90;99.90;;;;;;4978862;28;20057;-73
2023/05/10 12:12:43;;;;;;;0.38;0.38;;;15.90;99.90;;;;;;4963097;28;20112;-73
2023/05/10 12:15:12;;;;;;;0.40;0.40;;;15.90;99.90;;;;;;4979277;28;20058;-74
2023/05/10 12:17:39;;;;;;;0.30;0.30;;;15.90;99.90;;;;;;4978127;28;20047;-73
2023/05/10 12:20:15;;;;;;;0.20;0.20;;;15.90;99.90;;;;;;4977139;28;20041;-73
2023/05/10 12:22:43;;;;;;;1.05;0.35;;;16.00;99.90;;;;;;4980830;28;20061;-73
2023/05/10 12:25:09;;;;;;;;;;;16.00;99.90;;;;;;4982000;28;20050;-73
2023/05/10 12:27:35;;;;;;;0.38;0.38;;;16.00;99.90;;;;;;4974976;28;20371;-73
2023/05/10 12:30:01;;;;;;;0.30;0.30;;;16.00;99.90;;;;;;4976297;28;20117;-73
2023/05/10 12:32:43;;;;;;;0.47;0.47;;;16.10;99.90;;;;;;4979475;28;20517;-73
2023/05/10 12:35:09;;;;;;;0.45;0.45;;;16.10;99.90;;;;;;4958778;28;20507;-73
2023/05/10 12:37:38;;;;;;;0.20;0.20;;;16.10;99.90;;;;;;4977310;28;20074;-73
2023/05/10 12:40:06;;;;;;;0.30;0.30;;;16.10;99.90;;;;;;4975248;28;20050;-73
2023/05/10 12:42:32;;;;;;;;;;;16.00;99.90;;;;;;4978127;28;20423;-73
2023/05/10 12:44:58;;;;;;;0.20;0.20;;;16.00;99.90;;;;;;4966119;28;19926;-73
2023/05/10 12:47:23;;;;;;;0.43;0.43;;;15.90;99.90;;;;;;4973209;28;20050;-73
2023/05/10 12:49:49;;;;;;;0.30;0.30;;;15.90;99.90;;;;;;4963322;28;20050;-73
2023/05/10 12:52:14;;;;;;;0.40;0.40;;;15.80;99.90;;;;;;4973293;28;20057;-73
2023/05/10 12:54:40;;;;;;;0.45;0.45;;;15.90;99.90;;;;;;4979051;28;20086;-73